sensor_id;sensor_type;location;lat;lon;timestamp;P1;durP1;ratioP1;P2;durP2;ratioP2
45944;SDS011;31655;48.972;10.686;2023-06-26T00:02:17;10.63;;;7.07;;
45944;SDS011;31655;48.972;10.686;2023-06-26T00:04:44;10.10;;;7.50;;
45944;SDS011;31655;48.972;10.686;2023-06-26T00:07:10;11.70;;;7.93;;
45944;SDS011;31655;48.972;10.686;2023-06-26T00:09:36;12.07;;;8.10;;
45944;SDS011;31655;48.972;10.686;2023-06-26T00:12:02;19.85;;;10.95;;
45944;SDS011;31655;48.972;10.686;2023-06-26T00:14:29;15.55;;;8.20;;
45944;SDS011;31655;48.972;10.686;2023-06-26T00:16:55;10.23;;;7.22;;
45944;SDS011;31655;48.972;10.686;2023-06-26T00:19:21;11.40;;;7.35;;
45944;SDS011;31655;48.972;10.686;2023-06-26T00:21:47;10.98;;;6.72;;
45944;SDS011;31655;48.972;10.686;2023-06-26T00:24:16;12.57;;;7.82;;
45944;SDS011;31655;48.972;10.686;2023-06-26T00:26:42;12.55;;;8.45;;
45944;SDS011;31655;48.972;10.686;2023-06-26T00:29:08;9.48;;;7.70;;
45944;SDS011;31655;48.972;10.686;2023-06-26T00:31:34;10.55;;;6.80;;
45944;SDS011;31655;48.972;10.686;2023-06-26T00:34:00;10.27;;;7.45;;
45944;SDS011;31655;48.972;10.686;2023-06-26T00:36:27;10.02;;;7.68;;
45944;SDS011;31655;48.972;10.686;2023-06-26T00:38:52;11.50;;;7.97;;
45944;SDS011;31655;48.972;10.686;2023-06-26T00:41:19;12.43;;;8.18;;
45944;SDS011;31655;48.972;10.686;2023-06-26T00:43:44;11.00;;;8.13;;
45944;SDS011;31655;48.972;10.686;2023-06-26T00:46:12;9.73;;;7.53;;
45944;SDS011;31655;48.972;10.686;2023-06-26T00:48:39;10.13;;;7.25;;
45944;SDS011;31655;48.972;10.686;2023-06-26T00:51:07;10.15;;;7.47;;
45944;SDS011;31655;48.972;10.686;2023-06-26T00:53:33;12.23;;;8.32;;
45944;SDS011;31655;48.972;10.686;2023-06-26T00:55:59;9.85;;;7.43;;
45944;SDS011;31655;48.972;10.686;2023-06-26T00:58:27;9.52;;;6.70;;
45944;SDS011;31655;48.972;10.686;2023-06-26T01:00:53;11.23;;;7.75;;
45944;SDS011;31655;48.972;10.686;2023-06-26T01:03:20;9.65;;;6.82;;
45944;SDS011;31655;48.972;10.686;2023-06-26T01:05:47;9.23;;;5.60;;
45944;SDS011;31655;48.972;10.686;2023-06-26T01:08:14;11.02;;;7.07;;
45944;SDS011;31655;48.972;10.686;2023-06-26T01:10:40;9.45;;;7.05;;
45944;SDS011;31655;48.972;10.686;2023-06-26T01:13:06;8.45;;;7.25;;
45944;SDS011;31655;48.972;10.686;2023-06-26T01:15:33;12.95;;;8.68;;
45944;SDS011;31655;48.972;10.686;2023-06-26T01:17:59;12.43;;;7.95;;
45944;SDS011;31655;48.972;10.686;2023-06-26T01:20:28;10.30;;;6.75;;
45944;SDS011;31655;48.972;10.686;2023-06-26T01:23:22;9.55;;;6.95;;
45944;SDS011;31655;48.972;10.686;2023-06-26T01:25:56;9.75;;;7.63;;
45944;SDS011;31655;48.972;10.686;2023-06-26T01:28:35;12.55;;;8.07;;
45944;SDS011;31655;48.972;10.686;2023-06-26T01:31:05;10.38;;;7.22;;
45944;SDS011;31655;48.972;10.686;2023-06-26T01:33:32;9.25;;;7.50;;
45944;SDS011;31655;48.972;10.686;2023-06-26T01:35:58;7.72;;;6.53;;
45944;SDS011;31655;48.972;10.686;2023-06-26T01:38:25;9.20;;;6.10;;
45944;SDS011;31655;48.972;10.686;2023-06-26T01:40:51;12.27;;;6.93;;
45944;SDS011;31655;48.972;10.686;2023-06-26T01:46:18;14.43;;;8.80;;
45944;SDS011;31655;48.972;10.686;2023-06-26T01:48:51;10.43;;;7.88;;
45944;SDS011;31655;48.972;10.686;2023-06-26T01:51:32;10.73;;;7.22;;
45944;SDS011;31655;48.972;10.686;2023-06-26T01:54:00;10.75;;;6.75;;
45944;SDS011;31655;48.972;10.686;2023-06-26T01:56:26;13.50;;;6.78;;
45944;SDS011;31655;48.972;10.686;2023-06-26T01:58:54;9.20;;;7.20;;
45944;SDS011;31655;48.972;10.686;2023-06-26T02:01:21;9.02;;;6.75;;
45944;SDS011;31655;48.972;10.686;2023-06-26T02:03:48;11.07;;;6.88;;
45944;SDS011;31655;48.972;10.686;2023-06-26T02:06:13;10.43;;;6.55;;
45944;SDS011;31655;48.972;10.686;2023-06-26T02:08:40;9.23;;;7.03;;
45944;SDS011;31655;48.972;10.686;2023-06-26T02:11:06;10.85;;;6.40;;
45944;SDS011;31655;48.972;10.686;2023-06-26T02:13:31;11.35;;;7.18;;
45944;SDS011;31655;48.972;10.686;2023-06-26T02:15:57;9.00;;;6.72;;
45944;SDS011;31655;48.972;10.686;2023-06-26T02:18:23;12.18;;;6.97;;
45944;SDS011;31655;48.972;10.686;2023-06-26T02:20:50;11.20;;;7.10;;
45944;SDS011;31655;48.972;10.686;2023-06-26T02:23:16;12.05;;;7.90;;
45944;SDS011;31655;48.972;10.686;2023-06-26T02:25:42;8.88;;;7.18;;
45944;SDS011;31655;48.972;10.686;2023-06-26T02:28:07;13.68;;;8.15;;
45944;SDS011;31655;48.972;10.686;2023-06-26T02:30:33;13.98;;;7.85;;
45944;SDS011;31655;48.972;10.686;2023-06-26T02:32:59;10.35;;;7.32;;
45944;SDS011;31655;48.972;10.686;2023-06-26T02:35:25;10.88;;;7.38;;
45944;SDS011;31655;48.972;10.686;2023-06-26T02:37:51;12.57;;;7.03;;
45944;SDS011;31655;48.972;10.686;2023-06-26T02:40:17;10.82;;;7.82;;
45944;SDS011;31655;48.972;10.686;2023-06-26T02:42:43;10.32;;;7.35;;
45944;SDS011;31655;48.972;10.686;2023-06-26T02:45:09;11.10;;;7.63;;
45944;SDS011;31655;48.972;10.686;2023-06-26T02:47:35;13.52;;;7.80;;
45944;SDS011;31655;48.972;10.686;2023-06-26T02:50:04;12.25;;;7.80;;
45944;SDS011;31655;48.972;10.686;2023-06-26T02:52:30;15.10;;;8.98;;
45944;SDS011;31655;48.972;10.686;2023-06-26T02:54:56;13.35;;;8.88;;
45944;SDS011;31655;48.972;10.686;2023-06-26T02:57:22;14.13;;;7.75;;
45944;SDS011;31655;48.972;10.686;2023-06-26T02:59:48;13.15;;;8.48;;
45944;SDS011;31655;48.972;10.686;2023-06-26T03:02:14;12.18;;;8.48;;
45944;SDS011;31655;48.972;10.686;2023-06-26T03:04:40;15.55;;;7.50;;
45944;SDS011;31655;48.972;10.686;2023-06-26T03:07:08;11.48;;;7.93;;
45944;SDS011;31655;48.972;10.686;2023-06-26T03:09:34;12.90;;;7.57;;
45944;SDS011;31655;48.972;10.686;2023-06-26T03:12:00;11.73;;;8.15;;
45944;SDS011;31655;48.972;10.686;2023-06-26T03:14:26;12.32;;;8.23;;
45944;SDS011;31655;48.972;10.686;2023-06-26T03:16:53;11.07;;;7.75;;
45944;SDS011;31655;48.972;10.686;2023-06-26T03:19:22;11.93;;;7.68;;
45944;SDS011;31655;48.972;10.686;2023-06-26T03:21:48;12.38;;;7.93;;
45944;SDS011;31655;48.972;10.686;2023-06-26T03:24:14;11.38;;;8.15;;
45944;SDS011;31655;48.972;10.686;2023-06-26T03:26:40;12.10;;;9.02;;
45944;SDS011;31655;48.972;10.686;2023-06-26T03:29:06;13.23;;;8.00;;
45944;SDS011;31655;48.972;10.686;2023-06-26T03:31:32;11.30;;;7.85;;
45944;SDS011;31655;48.972;10.686;2023-06-26T03:33:57;11.13;;;7.90;;
45944;SDS011;31655;48.972;10.686;2023-06-26T03:36:23;11.80;;;7.38;;
45944;SDS011;31655;48.972;10.686;2023-06-26T03:38:49;12.93;;;8.45;;
45944;SDS011;31655;48.972;10.686;2023-06-26T03:41:16;14.35;;;7.97;;
45944;SDS011;31655;48.972;10.686;2023-06-26T03:43:42;11.68;;;8.32;;
45944;SDS011;31655;48.972;10.686;2023-06-26T03:46:08;11.20;;;8.05;;
45944;SDS011;31655;48.972;10.686;2023-06-26T03:48:34;13.57;;;8.88;;
45944;SDS011;31655;48.972;10.686;2023-06-26T03:51:00;12.25;;;7.45;;
45944;SDS011;31655;48.972;10.686;2023-06-26T03:53:27;13.25;;;8.70;;
45944;SDS011;31655;48.972;10.686;2023-06-26T03:55:53;13.20;;;8.20;;
45944;SDS011;31655;48.972;10.686;2023-06-26T03:58:19;10.77;;;7.53;;
45944;SDS011;31655;48.972;10.686;2023-06-26T04:00:45;12.55;;;8.18;;
45944;SDS011;31655;48.972;10.686;2023-06-26T04:03:12;11.40;;;8.15;;
45944;SDS011;31655;48.972;10.686;2023-06-26T04:05:38;12.32;;;8.75;;
45944;SDS011;31655;48.972;10.686;2023-06-26T04:08:04;12.48;;;8.07;;
45944;SDS011;31655;48.972;10.686;2023-06-26T04:10:30;12.75;;;8.32;;
45944;SDS011;31655;48.972;10.686;2023-06-26T04:12:56;12.30;;;8.60;;
45944;SDS011;31655;48.972;10.686;2023-06-26T04:15:21;12.13;;;8.25;;
45944;SDS011;31655;48.972;10.686;2023-06-26T04:17:47;11.50;;;8.18;;
45944;SDS011;31655;48.972;10.686;2023-06-26T04:20:13;12.95;;;8.80;;
45944;SDS011;31655;48.972;10.686;2023-06-26T04:22:40;10.98;;;8.23;;
45944;SDS011;31655;48.972;10.686;2023-06-26T04:25:06;13.40;;;8.10;;
45944;SDS011;31655;48.972;10.686;2023-06-26T04:27:32;10.60;;;7.50;;
45944;SDS011;31655;48.972;10.686;2023-06-26T04:29:57;11.20;;;8.27;;
45944;SDS011;31655;48.972;10.686;2023-06-26T04:32:24;13.25;;;8.45;;
45944;SDS011;31655;48.972;10.686;2023-06-26T04:34:50;12.00;;;8.23;;
45944;SDS011;31655;48.972;10.686;2023-06-26T04:37:16;10.38;;;7.45;;
45944;SDS011;31655;48.972;10.686;2023-06-26T04:39:42;11.38;;;6.88;;
45944;SDS011;31655;48.972;10.686;2023-06-26T04:42:08;10.50;;;7.45;;
45944;SDS011;31655;48.972;10.686;2023-06-26T04:44:36;10.52;;;7.53;;
45944;SDS011;31655;48.972;10.686;2023-06-26T04:47:02;11.95;;;8.10;;
45944;SDS011;31655;48.972;10.686;2023-06-26T04:49:28;10.38;;;7.00;;
45944;SDS011;31655;48.972;10.686;2023-06-26T04:51:55;11.27;;;7.85;;
45944;SDS011;31655;48.972;10.686;2023-06-26T04:54:21;10.23;;;7.43;;
45944;SDS011;31655;48.972;10.686;2023-06-26T04:56:48;9.02;;;6.50;;
45944;SDS011;31655;48.972;10.686;2023-06-26T04:59:14;10.43;;;6.70;;
45944;SDS011;31655;48.972;10.686;2023-06-26T05:01:40;12.10;;;7.57;;
45944;SDS011;31655;48.972;10.686;2023-06-26T05:04:06;8.27;;;6.53;;
45944;SDS011;31655;48.972;10.686;2023-06-26T05:06:33;7.72;;;6.55;;
45944;SDS011;31655;48.972;10.686;2023-06-26T05:08:59;7.13;;;6.05;;
45944;SDS011;31655;48.972;10.686;2023-06-26T05:11:25;11.07;;;7.82;;
45944;SDS011;31655;48.972;10.686;2023-06-26T05:13:51;8.43;;;6.90;;
45944;SDS011;31655;48.972;10.686;2023-06-26T05:16:17;13.52;;;7.05;;
45944;SDS011;31655;48.972;10.686;2023-06-26T05:18:43;10.23;;;8.18;;
45944;SDS011;31655;48.972;10.686;2023-06-26T05:21:08;8.48;;;7.00;;
45944;SDS011;31655;48.972;10.686;2023-06-26T05:23:34;12.20;;;7.20;;
45944;SDS011;31655;48.972;10.686;2023-06-26T05:26:01;10.23;;;6.85;;
45944;SDS011;31655;48.972;10.686;2023-06-26T05:28:28;8.07;;;7.00;;
45944;SDS011;31655;48.972;10.686;2023-06-26T05:30:56;7.80;;;6.30;;
45944;SDS011;31655;48.972;10.686;2023-06-26T05:33:23;9.95;;;6.78;;
45944;SDS011;31655;48.972;10.686;2023-06-26T05:35:50;8.05;;;7.13;;
45944;SDS011;31655;48.972;10.686;2023-06-26T05:38:18;10.77;;;7.03;;
45944;SDS011;31655;48.972;10.686;2023-06-26T05:40:44;7.55;;;6.75;;
45944;SDS011;31655;48.972;10.686;2023-06-26T05:43:10;11.05;;;7.28;;
45944;SDS011;31655;48.972;10.686;2023-06-26T05:45:36;7.68;;;6.20;;
45944;SDS011;31655;48.972;10.686;2023-06-26T05:48:01;9.95;;;7.50;;
45944;SDS011;31655;48.972;10.686;2023-06-26T05:50:28;8.40;;;7.32;;
45944;SDS011;31655;48.972;10.686;2023-06-26T05:52:54;8.68;;;7.22;;
45944;SDS011;31655;48.972;10.686;2023-06-26T05:55:20;11.20;;;7.25;;
45944;SDS011;31655;48.972;10.686;2023-06-26T05:57:46;8.80;;;7.55;;
45944;SDS011;31655;48.972;10.686;2023-06-26T06:00:12;10.45;;;8.07;;
45944;SDS011;31655;48.972;10.686;2023-06-26T06:02:39;12.13;;;8.85;;
45944;SDS011;31655;48.972;10.686;2023-06-26T06:05:06;12.52;;;8.95;;
45944;SDS011;31655;48.972;10.686;2023-06-26T06:07:32;8.40;;;7.60;;
45944;SDS011;31655;48.972;10.686;2023-06-26T06:09:59;14.48;;;9.50;;
45944;SDS011;31655;48.972;10.686;2023-06-26T06:12:24;8.57;;;7.70;;
45944;SDS011;31655;48.972;10.686;2023-06-26T06:14:51;9.50;;;8.20;;
45944;SDS011;31655;48.972;10.686;2023-06-26T06:17:17;10.43;;;8.13;;
45944;SDS011;31655;48.972;10.686;2023-06-26T06:19:43;8.45;;;7.45;;
45944;SDS011;31655;48.972;10.686;2023-06-26T06:22:09;7.55;;;6.72;;
45944;SDS011;31655;48.972;10.686;2023-06-26T06:24:35;11.90;;;8.20;;
45944;SDS011;31655;48.972;10.686;2023-06-26T06:27:01;10.15;;;8.35;;
45944;SDS011;31655;48.972;10.686;2023-06-26T06:29:27;10.00;;;7.70;;
45944;SDS011;31655;48.972;10.686;2023-06-26T06:31:53;9.30;;;8.32;;
45944;SDS011;31655;48.972;10.686;2023-06-26T06:34:19;12.32;;;8.25;;
45944;SDS011;31655;48.972;10.686;2023-06-26T06:36:45;10.70;;;7.68;;
45944;SDS011;31655;48.972;10.686;2023-06-26T06:39:11;12.80;;;7.80;;
45944;SDS011;31655;48.972;10.686;2023-06-26T06:41:37;11.00;;;9.10;;
45944;SDS011;31655;48.972;10.686;2023-06-26T06:44:03;11.40;;;9.00;;
45944;SDS011;31655;48.972;10.686;2023-06-26T06:46:28;10.48;;;9.48;;
45944;SDS011;31655;48.972;10.686;2023-06-26T06:48:54;10.95;;;8.25;;
45944;SDS011;31655;48.972;10.686;2023-06-26T06:51:21;10.55;;;8.40;;
45944;SDS011;31655;48.972;10.686;2023-06-26T06:53:47;8.32;;;7.47;;
45944;SDS011;31655;48.972;10.686;2023-06-26T06:56:12;9.13;;;8.13;;
45944;SDS011;31655;48.972;10.686;2023-06-26T06:58:38;11.02;;;7.72;;
45944;SDS011;31655;48.972;10.686;2023-06-26T07:01:07;10.93;;;7.93;;
45944;SDS011;31655;48.972;10.686;2023-06-26T07:03:34;9.48;;;8.48;;
45944;SDS011;31655;48.972;10.686;2023-06-26T07:05:59;12.88;;;8.10;;
45944;SDS011;31655;48.972;10.686;2023-06-26T07:08:26;11.65;;;8.88;;
45944;SDS011;31655;48.972;10.686;2023-06-26T07:10:51;9.00;;;7.95;;
45944;SDS011;31655;48.972;10.686;2023-06-26T07:13:17;8.63;;;7.75;;
45944;SDS011;31655;48.972;10.686;2023-06-26T07:15:44;9.65;;;7.95;;
45944;SDS011;31655;48.972;10.686;2023-06-26T07:18:10;9.55;;;7.95;;
45944;SDS011;31655;48.972;10.686;2023-06-26T07:20:36;9.23;;;7.82;;
45944;SDS011;31655;48.972;10.686;2023-06-26T07:23:02;9.55;;;8.38;;
45944;SDS011;31655;48.972;10.686;2023-06-26T07:25:28;10.45;;;8.45;;
45944;SDS011;31655;48.972;10.686;2023-06-26T07:27:54;9.05;;;8.02;;
45944;SDS011;31655;48.972;10.686;2023-06-26T07:30:20;8.68;;;7.82;;
45944;SDS011;31655;48.972;10.686;2023-06-26T07:32:45;10.07;;;7.88;;
45944;SDS011;31655;48.972;10.686;2023-06-26T07:35:11;9.93;;;8.93;;
45944;SDS011;31655;48.972;10.686;2023-06-26T07:37:37;10.07;;;9.00;;
45944;SDS011;31655;48.972;10.686;2023-06-26T07:40:03;10.10;;;9.00;;
45944;SDS011;31655;48.972;10.686;2023-06-26T07:42:28;9.52;;;7.32;;
45944;SDS011;31655;48.972;10.686;2023-06-26T07:44:54;8.90;;;8.07;;
45944;SDS011;31655;48.972;10.686;2023-06-26T07:47:20;9.45;;;8.10;;
45944;SDS011;31655;48.972;10.686;2023-06-26T07:49:46;11.15;;;8.45;;
45944;SDS011;31655;48.972;10.686;2023-06-26T07:52:12;9.45;;;8.35;;
45944;SDS011;31655;48.972;10.686;2023-06-26T07:54:40;12.50;;;8.35;;
45944;SDS011;31655;48.972;10.686;2023-06-26T07:57:06;10.48;;;7.72;;
45944;SDS011;31655;48.972;10.686;2023-06-26T07:59:32;9.35;;;8.35;;
45944;SDS011;31655;48.972;10.686;2023-06-26T08:01:58;8.57;;;7.75;;
45944;SDS011;31655;48.972;10.686;2023-06-26T08:04:25;9.65;;;7.72;;
45944;SDS011;31655;48.972;10.686;2023-06-26T08:06:53;9.57;;;7.85;;
45944;SDS011;31655;48.972;10.686;2023-06-26T08:09:20;9.15;;;8.35;;
45944;SDS011;31655;48.972;10.686;2023-06-26T08:11:47;9.43;;;7.68;;
45944;SDS011;31655;48.972;10.686;2023-06-26T08:14:13;10.68;;;9.55;;
45944;SDS011;31655;48.972;10.686;2023-06-26T08:16:39;11.63;;;8.73;;
45944;SDS011;31655;48.972;10.686;2023-06-26T08:19:05;12.07;;;8.23;;
45944;SDS011;31655;48.972;10.686;2023-06-26T08:21:31;11.20;;;8.60;;
45944;SDS011;31655;48.972;10.686;2023-06-26T08:23:57;9.80;;;8.52;;
45944;SDS011;31655;48.972;10.686;2023-06-26T08:26:26;8.60;;;7.70;;
45944;SDS011;31655;48.972;10.686;2023-06-26T08:28:52;8.13;;;7.05;;
45944;SDS011;31655;48.972;10.686;2023-06-26T08:31:17;8.90;;;8.00;;
45944;SDS011;31655;48.972;10.686;2023-06-26T08:33:44;8.30;;;7.57;;
45944;SDS011;31655;48.972;10.686;2023-06-26T08:36:09;13.20;;;7.53;;
45944;SDS011;31655;48.972;10.686;2023-06-26T08:38:35;11.13;;;7.35;;
45944;SDS011;31655;48.972;10.686;2023-06-26T08:41:00;9.52;;;7.50;;
45944;SDS011;31655;48.972;10.686;2023-06-26T08:43:26;9.88;;;7.25;;
45944;SDS011;31655;48.972;10.686;2023-06-26T08:45:53;8.18;;;7.32;;
45944;SDS011;31655;48.972;10.686;2023-06-26T08:48:20;11.35;;;7.63;;
45944;SDS011;31655;48.972;10.686;2023-06-26T08:50:47;8.63;;;7.72;;
45944;SDS011;31655;48.972;10.686;2023-06-26T08:55:41;9.07;;;6.95;;
45944;SDS011;31655;48.972;10.686;2023-06-26T08:58:07;9.38;;;6.93;;
45944;SDS011;31655;48.972;10.686;2023-06-26T09:00:33;7.47;;;6.75;;
45944;SDS011;31655;48.972;10.686;2023-06-26T09:02:59;7.25;;;6.55;;
45944;SDS011;31655;48.972;10.686;2023-06-26T09:05:26;8.43;;;7.63;;
45944;SDS011;31655;48.972;10.686;2023-06-26T09:07:57;7.95;;;7.13;;
45944;SDS011;31655;48.972;10.686;2023-06-26T09:10:23;8.43;;;7.60;;
45944;SDS011;31655;48.972;10.686;2023-06-26T09:12:49;9.35;;;7.30;;
45944;SDS011;31655;48.972;10.686;2023-06-26T09:15:15;8.93;;;7.18;;
45944;SDS011;31655;48.972;10.686;2023-06-26T09:17:44;8.50;;;7.70;;
45944;SDS011;31655;48.972;10.686;2023-06-26T09:20:10;8.75;;;7.72;;
45944;SDS011;31655;48.972;10.686;2023-06-26T09:22:37;7.50;;;6.82;;
45944;SDS011;31655;48.972;10.686;2023-06-26T09:25:06;10.95;;;7.07;;
45944;SDS011;31655;48.972;10.686;2023-06-26T09:27:32;7.03;;;6.30;;
45944;SDS011;31655;48.972;10.686;2023-06-26T09:29:59;7.22;;;6.25;;
45944;SDS011;31655;48.972;10.686;2023-06-26T09:32:24;6.90;;;5.85;;
45944;SDS011;31655;48.972;10.686;2023-06-26T09:34:52;6.05;;;5.50;;
45944;SDS011;31655;48.972;10.686;2023-06-26T09:37:18;6.10;;;5.45;;
45944;SDS011;31655;48.972;10.686;2023-06-26T09:39:44;8.10;;;5.45;;
45944;SDS011;31655;48.972;10.686;2023-06-26T09:42:10;6.53;;;5.93;;
45944;SDS011;31655;48.972;10.686;2023-06-26T09:44:43;8.80;;;5.57;;
45944;SDS011;31655;48.972;10.686;2023-06-26T09:47:09;6.43;;;5.75;;
45944;SDS011;31655;48.972;10.686;2023-06-26T09:49:34;6.63;;;6.03;;
45944;SDS011;31655;48.972;10.686;2023-06-26T09:52:01;6.75;;;6.05;;
45944;SDS011;31655;48.972;10.686;2023-06-26T09:54:27;9.75;;;6.78;;
45944;SDS011;31655;48.972;10.686;2023-06-26T09:56:55;6.35;;;5.75;;
45944;SDS011;31655;48.972;10.686;2023-06-26T09:59:21;6.30;;;5.70;;
45944;SDS011;31655;48.972;10.686;2023-06-26T10:01:48;8.70;;;5.57;;
45944;SDS011;31655;48.972;10.686;2023-06-26T10:04:14;7.82;;;6.03;;
45944;SDS011;31655;48.972;10.686;2023-06-26T10:06:46;6.63;;;5.97;;
45944;SDS011;31655;48.972;10.686;2023-06-26T10:11:50;6.78;;;5.72;;
45944;SDS011;31655;48.972;10.686;2023-06-26T10:14:24;9.02;;;5.95;;
45944;SDS011;31655;48.972;10.686;2023-06-26T10:16:52;5.68;;;5.18;;
45944;SDS011;31655;48.972;10.686;2023-06-26T10:19:22;7.90;;;5.97;;
45944;SDS011;31655;48.972;10.686;2023-06-26T10:21:54;5.63;;;5.05;;
45944;SDS011;31655;48.972;10.686;2023-06-26T10:24:21;6.78;;;6.05;;
45944;SDS011;31655;48.972;10.686;2023-06-26T10:26:50;8.65;;;5.95;;
45944;SDS011;31655;48.972;10.686;2023-06-26T10:29:21;9.87;;;6.07;;
45944;SDS011;31655;48.972;10.686;2023-06-26T10:31:50;10.35;;;6.70;;
45944;SDS011;31655;48.972;10.686;2023-06-26T10:34:19;7.10;;;6.28;;
45944;SDS011;31655;48.972;10.686;2023-06-26T10:36:45;6.47;;;5.88;;
45944;SDS011;31655;48.972;10.686;2023-06-26T10:39:12;6.10;;;5.50;;
45944;SDS011;31655;48.972;10.686;2023-06-26T10:41:38;5.55;;;5.05;;
45944;SDS011;31655;48.972;10.686;2023-06-26T10:44:09;5.63;;;5.13;;
45944;SDS011;31655;48.972;10.686;2023-06-26T10:46:51;5.97;;;5.25;;
45944;SDS011;31655;48.972;10.686;2023-06-26T10:49:25;10.63;;;5.13;;
45944;SDS011;31655;48.972;10.686;2023-06-26T10:51:53;6.85;;;5.43;;
45944;SDS011;31655;48.972;10.686;2023-06-26T10:54:20;6.88;;;6.28;;
45944;SDS011;31655;48.972;10.686;2023-06-26T10:56:47;6.70;;;6.10;;
45944;SDS011;31655;48.972;10.686;2023-06-26T10:59:18;6.35;;;5.75;;
45944;SDS011;31655;48.972;10.686;2023-06-26T11:01:54;6.13;;;5.53;;
45944;SDS011;31655;48.972;10.686;2023-06-26T11:07:28;5.00;;;4.60;;
45944;SDS011;31655;48.972;10.686;2023-06-26T11:10:00;7.40;;;6.22;;
45944;SDS011;31655;48.972;10.686;2023-06-26T11:12:41;6.38;;;5.78;;
45944;SDS011;31655;48.972;10.686;2023-06-26T11:17:36;6.55;;;5.95;;
45944;SDS011;31655;48.972;10.686;2023-06-26T11:20:03;9.52;;;6.57;;
45944;SDS011;31655;48.972;10.686;2023-06-26T11:22:30;7.40;;;6.63;;
45944;SDS011;31655;48.972;10.686;2023-06-26T11:24:59;7.68;;;6.05;;
45944;SDS011;31655;48.972;10.686;2023-06-26T11:27:30;7.97;;;5.63;;
45944;SDS011;31655;48.972;10.686;2023-06-26T11:30:03;6.03;;;5.53;;
45944;SDS011;31655;48.972;10.686;2023-06-26T11:32:30;10.38;;;6.15;;
45944;SDS011;31655;48.972;10.686;2023-06-26T11:34:57;9.07;;;6.45;;
45944;SDS011;31655;48.972;10.686;2023-06-26T11:37:24;6.63;;;5.35;;
45944;SDS011;31655;48.972;10.686;2023-06-26T11:39:50;10.48;;;6.57;;
45944;SDS011;31655;48.972;10.686;2023-06-26T11:42:16;7.57;;;6.60;;
45944;SDS011;31655;48.972;10.686;2023-06-26T11:44:42;10.20;;;6.43;;
45944;SDS011;31655;48.972;10.686;2023-06-26T11:47:12;10.05;;;5.43;;
45944;SDS011;31655;48.972;10.686;2023-06-26T11:49:42;6.05;;;5.45;;
45944;SDS011;31655;48.972;10.686;2023-06-26T11:52:08;6.18;;;5.55;;
45944;SDS011;31655;48.972;10.686;2023-06-26T11:54:35;6.97;;;6.22;;
45944;SDS011;31655;48.972;10.686;2023-06-26T11:57:02;8.05;;;6.03;;
45944;SDS011;31655;48.972;10.686;2023-06-26T11:59:34;7.13;;;5.40;;
45944;SDS011;31655;48.972;10.686;2023-06-26T12:02:04;7.30;;;6.50;;
45944;SDS011;31655;48.972;10.686;2023-06-26T12:04:34;7.07;;;5.05;;
45944;SDS011;31655;48.972;10.686;2023-06-26T12:07:02;7.45;;;6.13;;
45944;SDS011;31655;48.972;10.686;2023-06-26T12:09:30;5.70;;;5.15;;
45944;SDS011;31655;48.972;10.686;2023-06-26T12:11:58;7.35;;;6.03;;
45944;SDS011;31655;48.972;10.686;2023-06-26T12:14:25;8.27;;;5.80;;
45944;SDS011;31655;48.972;10.686;2023-06-26T12:16:53;8.48;;;6.10;;
45944;SDS011;31655;48.972;10.686;2023-06-26T12:19:23;7.38;;;6.68;;
45944;SDS011;31655;48.972;10.686;2023-06-26T12:21:53;8.97;;;6.80;;
45944;SDS011;31655;48.972;10.686;2023-06-26T12:24:23;9.15;;;6.70;;
45944;SDS011;31655;48.972;10.686;2023-06-26T12:26:51;6.65;;;6.05;;
45944;SDS011;31655;48.972;10.686;2023-06-26T12:29:19;7.75;;;6.45;;
45944;SDS011;31655;48.972;10.686;2023-06-26T12:31:48;9.10;;;7.13;;
45944;SDS011;31655;48.972;10.686;2023-06-26T12:34:17;7.10;;;6.40;;
45944;SDS011;31655;48.972;10.686;2023-06-26T12:36:45;8.93;;;6.93;;
45944;SDS011;31655;48.972;10.686;2023-06-26T12:39:14;10.27;;;6.70;;
45944;SDS011;31655;48.972;10.686;2023-06-26T12:44:29;9.10;;;6.50;;
45944;SDS011;31655;48.972;10.686;2023-06-26T12:47:00;7.32;;;6.55;;
45944;SDS011;31655;48.972;10.686;2023-06-26T12:49:45;10.73;;;7.18;;
45944;SDS011;31655;48.972;10.686;2023-06-26T12:52:15;7.20;;;6.50;;
45944;SDS011;31655;48.972;10.686;2023-06-26T12:54:41;7.57;;;6.72;;
45944;SDS011;31655;48.972;10.686;2023-06-26T12:57:08;7.38;;;5.40;;
45944;SDS011;31655;48.972;10.686;2023-06-26T12:59:36;9.10;;;6.28;;
45944;SDS011;31655;48.972;10.686;2023-06-26T13:02:02;7.43;;;6.57;;
45944;SDS011;31655;48.972;10.686;2023-06-26T13:04:28;7.40;;;5.28;;
45944;SDS011;31655;48.972;10.686;2023-06-26T13:06:54;5.97;;;5.38;;
45944;SDS011;31655;48.972;10.686;2023-06-26T13:09:21;9.57;;;6.07;;
45944;SDS011;31655;48.972;10.686;2023-06-26T13:11:47;6.68;;;5.95;;
45944;SDS011;31655;48.972;10.686;2023-06-26T13:14:13;9.52;;;6.60;;
45944;SDS011;31655;48.972;10.686;2023-06-26T13:16:39;6.15;;;5.53;;
45944;SDS011;31655;48.972;10.686;2023-06-26T13:19:05;11.73;;;6.38;;
45944;SDS011;31655;48.972;10.686;2023-06-26T13:21:32;8.65;;;5.78;;
45944;SDS011;31655;48.972;10.686;2023-06-26T13:23:58;7.97;;;6.55;;
45944;SDS011;31655;48.972;10.686;2023-06-26T13:26:24;11.55;;;5.78;;
45944;SDS011;31655;48.972;10.686;2023-06-26T13:28:51;7.90;;;6.70;;
45944;SDS011;31655;48.972;10.686;2023-06-26T13:31:17;6.80;;;6.18;;
45944;SDS011;31655;48.972;10.686;2023-06-26T13:33:44;7.95;;;6.50;;
45944;SDS011;31655;48.972;10.686;2023-06-26T13:36:11;7.32;;;5.97;;
45944;SDS011;31655;48.972;10.686;2023-06-26T13:38:37;7.07;;;6.38;;
45944;SDS011;31655;48.972;10.686;2023-06-26T13:41:03;9.90;;;7.13;;
45944;SDS011;31655;48.972;10.686;2023-06-26T13:43:29;8.13;;;6.38;;
45944;SDS011;31655;48.972;10.686;2023-06-26T13:45:55;11.95;;;6.68;;
45944;SDS011;31655;48.972;10.686;2023-06-26T13:48:21;11.35;;;7.63;;
45944;SDS011;31655;48.972;10.686;2023-06-26T13:50:49;7.60;;;6.45;;
45944;SDS011;31655;48.972;10.686;2023-06-26T13:53:15;8.55;;;6.28;;
45944;SDS011;31655;48.972;10.686;2023-06-26T13:55:42;7.35;;;5.55;;
45944;SDS011;31655;48.972;10.686;2023-06-26T13:58:08;8.18;;;5.63;;
45944;SDS011;31655;48.972;10.686;2023-06-26T14:00:34;10.57;;;6.82;;
45944;SDS011;31655;48.972;10.686;2023-06-26T14:03:01;11.45;;;6.90;;
45944;SDS011;31655;48.972;10.686;2023-06-26T14:05:28;8.65;;;6.38;;
45944;SDS011;31655;48.972;10.686;2023-06-26T14:07:54;10.40;;;6.93;;
45944;SDS011;31655;48.972;10.686;2023-06-26T14:10:20;8.13;;;7.13;;
45944;SDS011;31655;48.972;10.686;2023-06-26T14:12:46;7.80;;;7.00;;
45944;SDS011;31655;48.972;10.686;2023-06-26T14:15:17;12.25;;;7.72;;
45944;SDS011;31655;48.972;10.686;2023-06-26T14:17:43;7.63;;;6.93;;
45944;SDS011;31655;48.972;10.686;2023-06-26T14:20:09;7.63;;;6.93;;
45944;SDS011;31655;48.972;10.686;2023-06-26T14:22:38;9.23;;;6.82;;
45944;SDS011;31655;48.972;10.686;2023-06-26T14:25:04;10.48;;;7.88;;
45944;SDS011;31655;48.972;10.686;2023-06-26T14:27:30;10.20;;;7.65;;
45944;SDS011;31655;48.972;10.686;2023-06-26T14:29:56;10.93;;;8.43;;
45944;SDS011;31655;48.972;10.686;2023-06-26T14:32:22;9.32;;;7.05;;
45944;SDS011;31655;48.972;10.686;2023-06-26T14:34:48;7.45;;;6.40;;
45944;SDS011;31655;48.972;10.686;2023-06-26T14:37:14;11.07;;;7.05;;
45944;SDS011;31655;48.972;10.686;2023-06-26T14:39:41;11.30;;;8.18;;
45944;SDS011;31655;48.972;10.686;2023-06-26T14:42:07;11.32;;;7.82;;
45944;SDS011;31655;48.972;10.686;2023-06-26T14:44:33;7.85;;;7.00;;